sensor_id;sensor_type;location;lat;lon;timestamp;temperature;humidity
19888;DHT22;10106;51.332;12.336;2022-10-17T00:01:09;14.90;99.90
19888;DHT22;10106;51.332;12.336;2022-10-17T00:03:35;14.90;99.90
19888;DHT22;10106;51.332;12.336;2022-10-17T00:06:06;14.90;99.90
19888;DHT22;10106;51.332;12.336;2022-10-17T00:08:33;15.00;99.90
19888;DHT22;10106;51.332;12.336;2022-10-17T00:11:05;15.00;99.90
19888;DHT22;10106;51.332;12.336;2022-10-17T00:13:31;15.00;99.90
19888;DHT22;10106;51.332;12.336;2022-10-17T00:15:57;15.00;99.90
19888;DHT22;10106;51.332;12.336;2022-10-17T00:18:23;15.10;99.90
19888;DHT22;10106;51.332;12.336;2022-10-17T00:20:48;15.10;99.90
19888;DHT22;10106;51.332;12.336;2022-10-17T00:23:14;15.10;99.90
19888;DHT22;10106;51.332;12.336;2022-10-17T00:25:40;15.10;99.90
19888;DHT22;10106;51.332;12.336;2022-10-17T00:28:10;15.20;99.90
19888;DHT22;10106;51.332;12.336;2022-10-17T00:30:36;15.20;99.90
19888;DHT22;10106;51.332;12.336;2022-10-17T00:33:02;15.20;99.90
19888;DHT22;10106;51.332;12.336;2022-10-17T00:35:27;15.20;99.90
19888;DHT22;10106;51.332;12.336;2022-10-17T00:37:53;15.20;99.90
19888;DHT22;10106;51.332;12.336;2022-10-17T00:40:19;15.20;99.90
19888;DHT22;10106;51.332;12.336;2022-10-17T00:42:44;15.10;99.90
19888;DHT22;10106;51.332;12.336;2022-10-17T00:45:20;15.10;99.90
19888;DHT22;10106;51.332;12.336;2022-10-17T00:48:00;15.10;99.90
19888;DHT22;10106;51.332;12.336;2022-10-17T00:50:28;15.10;99.90
19888;DHT22;10106;51.332;12.336;2022-10-17T00:52:55;15.10;99.90
19888;DHT22;10106;51.332;12.336;2022-10-17T00:55:26;15.00;99.90
19888;DHT22;10106;51.332;12.336;2022-10-17T00:57:54;14.90;99.90
19888;DHT22;10106;51.332;12.336;2022-10-17T01:00:20;14.90;99.90
19888;DHT22;10106;51.332;12.336;2022-10-17T01:02:46;14.90;99.90
19888;DHT22;10106;51.332;12.336;2022-10-17T01:05:14;14.90;99.90
19888;DHT22;10106;51.332;12.336;2022-10-17T01:07:41;14.80;99.90
19888;DHT22;10106;51.332;12.336;2022-10-17T01:10:08;14.70;99.90
19888;DHT22;10106;51.332;12.336;2022-10-17T01:14:00;14.70;99.90
19888;DHT22;10106;51.332;12.336;2022-10-17T01:16:07;14.70;99.90
19888;DHT22;10106;51.332;12.336;2022-10-17T01:18:55;14.60;99.90
19888;DHT22;10106;51.332;12.336;2022-10-17T01:21:35;14.60;99.90
19888;DHT22;10106;51.332;12.336;2022-10-17T01:24:40;14.60;99.90
19888;DHT22;10106;51.332;12.336;2022-10-17T01:33:42;14.50;99.90
19888;DHT22;10106;51.332;12.336;2022-10-17T01:38:31;14.60;99.90
19888;DHT22;10106;51.332;12.336;2022-10-17T01:46:14;14.70;99.90
19888;DHT22;10106;51.332;12.336;2022-10-17T01:48:43;14.70;99.90
19888;DHT22;10106;51.332;12.336;2022-10-17T01:51:17;14.80;99.90
19888;DHT22;10106;51.332;12.336;2022-10-17T01:54:17;14.80;99.90
19888;DHT22;10106;51.332;12.336;2022-10-17T01:56:45;14.90;99.90
19888;DHT22;10106;51.332;12.336;2022-10-17T01:59:16;14.90;99.90
19888;DHT22;10106;51.332;12.336;2022-10-17T02:01:43;14.90;99.90
19888;DHT22;10106;51.332;12.336;2022-10-17T02:04:10;14.90;99.90
19888;DHT22;10106;51.332;12.336;2022-10-17T02:06:37;15.00;99.90
19888;DHT22;10106;51.332;12.336;2022-10-17T02:09:20;14.90;99.90
19888;DHT22;10106;51.332;12.336;2022-10-17T02:11:54;14.90;99.90
19888;DHT22;10106;51.332;12.336;2022-10-17T02:14:40;14.90;99.90
19888;DHT22;10106;51.332;12.336;2022-10-17T02:22:53;14.90;99.90
19888;DHT22;10106;51.332;12.336;2022-10-17T02:25:32;14.80;99.90
19888;DHT22;10106;51.332;12.336;2022-10-17T02:28:22;14.90;99.90
19888;DHT22;10106;51.332;12.336;2022-10-17T02:33:24;15.00;99.90
19888;DHT22;10106;51.332;12.336;2022-10-17T02:35:53;15.00;99.90
19888;DHT22;10106;51.332;12.336;2022-10-17T02:38:21;15.00;99.90
19888;DHT22;10106;51.332;12.336;2022-10-17T02:40:50;15.00;99.90
19888;DHT22;10106;51.332;12.336;2022-10-17T02:43:18;15.00;99.90
19888;DHT22;10106;51.332;12.336;2022-10-17T02:45:45;15.00;99.90
19888;DHT22;10106;51.332;12.336;2022-10-17T02:48:24;15.10;99.90
19888;DHT22;10106;51.332;12.336;2022-10-17T02:51:04;15.10;99.90
19888;DHT22;10106;51.332;12.336;2022-10-17T02:53:56;15.10;99.90
19888;DHT22;10106;51.332;12.336;2022-10-17T02:56:23;15.10;99.90
19888;DHT22;10106;51.332;12.336;2022-10-17T02:58:54;15.10;99.90
19888;DHT22;10106;51.332;12.336;2022-10-17T03:01:20;15.10;99.90
19888;DHT22;10106;51.332;12.336;2022-10-17T03:03:46;15.10;99.90
19888;DHT22;10106;51.332;12.336;2022-10-17T03:06:12;15.10;99.90
19888;DHT22;10106;51.332;12.336;2022-10-17T03:08:37;15.10;99.90
19888;DHT22;10106;51.332;12.336;2022-10-17T03:11:03;15.10;99.90
19888;DHT22;10106;51.332;12.336;2022-10-17T03:13:29;15.10;99.90
19888;DHT22;10106;51.332;12.336;2022-10-17T03:15:55;15.10;99.90
19888;DHT22;10106;51.332;12.336;2022-10-17T03:18:22;15.10;99.90
19888;DHT22;10106;51.332;12.336;2022-10-17T03:20:47;15.10;99.90
19888;DHT22;10106;51.332;12.336;2022-10-17T03:23:13;15.10;99.90
19888;DHT22;10106;51.332;12.336;2022-10-17T03:25:39;15.00;99.90
19888;DHT22;10106;51.332;12.336;2022-10-17T03:28:05;15.00;99.90
19888;DHT22;10106;51.332;12.336;2022-10-17T03:30:31;15.00;99.90
19888;DHT22;10106;51.332;12.336;2022-10-17T03:32:57;14.90;99.90
19888;DHT22;10106;51.332;12.336;2022-10-17T03:35:23;14.90;99.90
19888;DHT22;10106;51.332;12.336;2022-10-17T03:37:49;14.90;99.90
19888;DHT22;10106;51.332;12.336;2022-10-17T03:40:14;14.90;99.90
19888;DHT22;10106;51.332;12.336;2022-10-17T03:42:40;14.90;99.90
19888;DHT22;10106;51.332;12.336;2022-10-17T03:45:06;14.80;99.90
19888;DHT22;10106;51.332;12.336;2022-10-17T03:47:31;14.80;99.90
19888;DHT22;10106;51.332;12.336;2022-10-17T03:49:57;14.80;99.90
19888;DHT22;10106;51.332;12.336;2022-10-17T03:52:22;14.80;99.90
19888;DHT22;10106;51.332;12.336;2022-10-17T03:54:49;14.70;99.90
19888;DHT22;10106;51.332;12.336;2022-10-17T03:57:15;14.70;99.90
19888;DHT22;10106;51.332;12.336;2022-10-17T03:59:41;14.70;99.90
19888;DHT22;10106;51.332;12.336;2022-10-17T04:02:06;14.70;99.90
19888;DHT22;10106;51.332;12.336;2022-10-17T04:04:32;14.70;99.90
19888;DHT22;10106;51.332;12.336;2022-10-17T04:06:58;14.70;99.90
19888;DHT22;10106;51.332;12.336;2022-10-17T04:09:23;14.70;99.90
19888;DHT22;10106;51.332;12.336;2022-10-17T04:11:49;14.60;99.90
19888;DHT22;10106;51.332;12.336;2022-10-17T04:14:14;14.70;99.90
19888;DHT22;10106;51.332;12.336;2022-10-17T04:16:40;14.70;99.90
19888;DHT22;10106;51.332;12.336;2022-10-17T04:19:05;14.70;99.90
19888;DHT22;10106;51.332;12.336;2022-10-17T04:21:31;14.70;99.90
19888;DHT22;10106;51.332;12.336;2022-10-17T04:23:58;14.70;99.90
19888;DHT22;10106;51.332;12.336;2022-10-17T04:26:25;14.70;99.90
19888;DHT22;10106;51.332;12.336;2022-10-17T04:28:50;14.70;99.90
19888;DHT22;10106;51.332;12.336;2022-10-17T04:31:16;14.70;99.90
19888;DHT22;10106;51.332;12.336;2022-10-17T04:33:45;14.70;99.90
19888;DHT22;10106;51.332;12.336;2022-10-17T04:36:13;14.70;99.90
19888;DHT22;10106;51.332;12.336;2022-10-17T04:38:39;14.70;99.90
19888;DHT22;10106;51.332;12.336;2022-10-17T04:41:07;14.60;99.90
19888;DHT22;10106;51.332;12.336;2022-10-17T04:43:37;14.60;99.90
19888;DHT22;10106;51.332;12.336;2022-10-17T04:46:08;14.60;99.90
19888;DHT22;10106;51.332;12.336;2022-10-17T04:48:34;14.60;99.90
19888;DHT22;10106;51.332;12.336;2022-10-17T04:51:05;14.50;99.90
19888;DHT22;10106;51.332;12.336;2022-10-17T04:53:33;14.50;99.90
19888;DHT22;10106;51.332;12.336;2022-10-17T04:55:59;14.40;99.90
19888;DHT22;10106;51.332;12.336;2022-10-17T04:58:27;14.40;99.90
19888;DHT22;10106;51.332;12.336;2022-10-17T05:06:07;14.30;99.90
19888;DHT22;10106;51.332;12.336;2022-10-17T05:08:34;14.20;99.90
19888;DHT22;10106;51.332;12.336;2022-10-17T05:11:00;14.20;99.90
19888;DHT22;10106;51.332;12.336;2022-10-17T05:13:25;14.20;99.90
19888;DHT22;10106;51.332;12.336;2022-10-17T05:15:51;14.10;99.90
19888;DHT22;10106;51.332;12.336;2022-10-17T05:18:17;14.10;99.90
19888;DHT22;10106;51.332;12.336;2022-10-17T05:20:42;14.10;99.90
19888;DHT22;10106;51.332;12.336;2022-10-17T05:23:08;14.20;99.90
19888;DHT22;10106;51.332;12.336;2022-10-17T05:25:33;14.10;99.90
19888;DHT22;10106;51.332;12.336;2022-10-17T05:27:59;14.10;99.90
19888;DHT22;10106;51.332;12.336;2022-10-17T05:30:24;14.10;99.90
19888;DHT22;10106;51.332;12.336;2022-10-17T05:32:54;14.20;99.90
19888;DHT22;10106;51.332;12.336;2022-10-17T05:35:20;14.20;99.90
19888;DHT22;10106;51.332;12.336;2022-10-17T05:37:46;14.20;99.90
19888;DHT22;10106;51.332;12.336;2022-10-17T05:40:12;14.20;99.90
19888;DHT22;10106;51.332;12.336;2022-10-17T05:42:37;14.20;99.90
19888;DHT22;10106;51.332;12.336;2022-10-17T05:45:03;14.20;99.90
19888;DHT22;10106;51.332;12.336;2022-10-17T05:47:30;14.30;99.90
19888;DHT22;10106;51.332;12.336;2022-10-17T05:49:55;14.30;99.90
19888;DHT22;10106;51.332;12.336;2022-10-17T05:52:21;14.30;99.90
19888;DHT22;10106;51.332;12.336;2022-10-17T05:54:46;14.40;99.90
19888;DHT22;10106;51.332;12.336;2022-10-17T05:57:12;14.40;99.90
19888;DHT22;10106;51.332;12.336;2022-10-17T05:59:38;14.50;99.90
19888;DHT22;10106;51.332;12.336;2022-10-17T06:02:03;14.60;99.90
19888;DHT22;10106;51.332;12.336;2022-10-17T06:04:29;14.70;99.90
19888;DHT22;10106;51.332;12.336;2022-10-17T06:06:54;14.90;99.90
19888;DHT22;10106;51.332;12.336;2022-10-17T06:09:21;15.00;99.90
19888;DHT22;10106;51.332;12.336;2022-10-17T06:11:46;15.10;99.90
19888;DHT22;10106;51.332;12.336;2022-10-17T06:14:12;15.20;99.90
19888;DHT22;10106;51.332;12.336;2022-10-17T06:16:37;15.40;99.90
19888;DHT22;10106;51.332;12.336;2022-10-17T06:19:03;15.50;99.90
19888;DHT22;10106;51.332;12.336;2022-10-17T06:21:29;15.70;99.90
19888;DHT22;10106;51.332;12.336;2022-10-17T06:23:54;15.90;99.90
19888;DHT22;10106;51.332;12.336;2022-10-17T06:26:20;16.10;99.90
19888;DHT22;10106;51.332;12.336;2022-10-17T06:28:45;16.50;99.90
19888;DHT22;10106;51.332;12.336;2022-10-17T06:31:13;17.00;99.90
19888;DHT22;10106;51.332;12.336;2022-10-17T06:33:39;17.50;99.90
19888;DHT22;10106;51.332;12.336;2022-10-17T06:36:06;18.20;99.90
19888;DHT22;10106;51.332;12.336;2022-10-17T06:38:35;18.50;99.90
19888;DHT22;10106;51.332;12.336;2022-10-17T06:41:12;18.60;99.90
19888;DHT22;10106;51.332;12.336;2022-10-17T06:43:40;18.40;99.90
19888;DHT22;10106;51.332;12.336;2022-10-17T06:46:08;18.50;99.90
19888;DHT22;10106;51.332;12.336;2022-10-17T06:48:33;18.60;99.90
19888;DHT22;10106;51.332;12.336;2022-10-17T06:51:00;18.90;99.90
19888;DHT22;10106;51.332;12.336;2022-10-17T06:53:27;18.90;99.90
19888;DHT22;10106;51.332;12.336;2022-10-17T06:55:53;19.00;99.90
19888;DHT22;10106;51.332;12.336;2022-10-17T06:58:20;19.50;99.90
19888;DHT22;10106;51.332;12.336;2022-10-17T07:00:45;19.90;99.90
19888;DHT22;10106;51.332;12.336;2022-10-17T07:03:11;20.80;99.90
19888;DHT22;10106;51.332;12.336;2022-10-17T07:05:36;21.90;99.90
19888;DHT22;10106;51.332;12.336;2022-10-17T07:08:04;23.40;99.90
19888;DHT22;10106;51.332;12.336;2022-10-17T07:10:29;24.40;99.90
19888;DHT22;10106;51.332;12.336;2022-10-17T07:12:55;25.20;99.90
19888;DHT22;10106;51.332;12.336;2022-10-17T07:15:20;25.90;99.90
19888;DHT22;10106;51.332;12.336;2022-10-17T07:17:48;26.60;99.90
19888;DHT22;10106;51.332;12.336;2022-10-17T07:20:15;26.70;99.90
19888;DHT22;10106;51.332;12.336;2022-10-17T07:22:40;27.10;99.90
19888;DHT22;10106;51.332;12.336;2022-10-17T07:25:07;27.80;99.30
19888;DHT22;10106;51.332;12.336;2022-10-17T07:27:32;28.50;96.10
19888;DHT22;10106;51.332;12.336;2022-10-17T07:29:58;27.70;95.20
19888;DHT22;10106;51.332;12.336;2022-10-17T07:32:23;27.20;96.00
19888;DHT22;10106;51.332;12.336;2022-10-17T07:34:49;26.70;98.40
19888;DHT22;10106;51.332;12.336;2022-10-17T07:37:15;26.30;99.00
19888;DHT22;10106;51.332;12.336;2022-10-17T07:39:40;26.10;99.80
19888;DHT22;10106;51.332;12.336;2022-10-17T07:42:06;25.50;99.90
19888;DHT22;10106;51.332;12.336;2022-10-17T07:44:32;25.00;99.90
19888;DHT22;10106;51.332;12.336;2022-10-17T07:46:58;24.70;99.90
19888;DHT22;10106;51.332;12.336;2022-10-17T07:49:23;23.70;99.90
19888;DHT22;10106;51.332;12.336;2022-10-17T07:51:49;22.70;99.90
19888;DHT22;10106;51.332;12.336;2022-10-17T07:54:14;21.80;99.90
19888;DHT22;10106;51.332;12.336;2022-10-17T07:56:40;21.10;99.90
19888;DHT22;10106;51.332;12.336;2022-10-17T07:59:06;20.70;99.90
19888;DHT22;10106;51.332;12.336;2022-10-17T08:01:31;20.50;99.90
19888;DHT22;10106;51.332;12.336;2022-10-17T08:03:57;20.40;99.90
19888;DHT22;10106;51.332;12.336;2022-10-17T08:06:23;20.30;99.90
19888;DHT22;10106;51.332;12.336;2022-10-17T08:08:48;20.10;99.90
19888;DHT22;10106;51.332;12.336;2022-10-17T08:11:14;19.80;99.90
19888;DHT22;10106;51.332;12.336;2022-10-17T08:13:41;19.80;99.90
19888;DHT22;10106;51.332;12.336;2022-10-17T08:16:09;19.80;99.90
19888;DHT22;10106;51.332;12.336;2022-10-17T08:18:36;20.10;99.90
19888;DHT22;10106;51.332;12.336;2022-10-17T08:21:04;20.30;99.90
19888;DHT22;10106;51.332;12.336;2022-10-17T08:23:33;20.50;99.90
19888;DHT22;10106;51.332;12.336;2022-10-17T08:26:00;20.80;99.90
19888;DHT22;10106;51.332;12.336;2022-10-17T08:28:26;21.10;99.90
19888;DHT22;10106;51.332;12.336;2022-10-17T08:30:52;21.50;99.90
19888;DHT22;10106;51.332;12.336;2022-10-17T08:33:18;22.70;99.90
19888;DHT22;10106;51.332;12.336;2022-10-17T08:35:43;23.50;99.90
19888;DHT22;10106;51.332;12.336;2022-10-17T08:38:09;23.70;99.90
19888;DHT22;10106;51.332;12.336;2022-10-17T08:40:34;25.10;99.90
19888;DHT22;10106;51.332;12.336;2022-10-17T08:46:02;26.70;99.90
19888;DHT22;10106;51.332;12.336;2022-10-17T08:48:32;27.70;99.30
19888;DHT22;10106;51.332;12.336;2022-10-17T08:53:40;28.70;93.90
19888;DHT22;10106;51.332;12.336;2022-10-17T08:56:45;28.90;93.50
19888;DHT22;10106;51.332;12.336;2022-10-17T08:59:16;29.10;91.30
19888;DHT22;10106;51.332;12.336;2022-10-17T09:02:00;27.90;93.10
19888;DHT22;10106;51.332;12.336;2022-10-17T09:09:49;28.20;92.20
19888;DHT22;10106;51.332;12.336;2022-10-17T09:17:59;27.30;95.30
19888;DHT22;10106;51.332;12.336;2022-10-17T09:20:36;27.60;94.50
19888;DHT22;10106;51.332;12.336;2022-10-17T09:25:42;27.40;93.50
19888;DHT22;10106;51.332;12.336;2022-10-17T09:28:11;27.20;94.40
19888;DHT22;10106;51.332;12.336;2022-10-17T09:30:50;27.70;94.40
19888;DHT22;10106;51.332;12.336;2022-10-17T09:33:40;29.30;92.00
19888;DHT22;10106;51.332;12.336;2022-10-17T09:36:25;31.10;86.40
19888;DHT22;10106;51.332;12.336;2022-10-17T09:39:23;31.00;82.10
19888;DHT22;10106;51.332;12.336;2022-10-17T09:41:55;28.80;86.70
19888;DHT22;10106;51.332;12.336;2022-10-17T09:44:22;26.70;92.60
19888;DHT22;10106;51.332;12.336;2022-10-17T09:49:44;24.50;99.90
19888;DHT22;10106;51.332;12.336;2022-10-17T09:52:16;23.80;99.90
19888;DHT22;10106;51.332;12.336;2022-10-17T09:54:49;23.50;99.90
19888;DHT22;10106;51.332;12.336;2022-10-17T09:57:16;23.40;99.90
19888;DHT22;10106;51.332;12.336;2022-10-17T10:00:04;23.30;99.90
19888;DHT22;10106;51.332;12.336;2022-10-17T10:02:30;23.30;99.90
19888;DHT22;10106;51.332;12.336;2022-10-17T10:05:05;23.50;99.90
19888;DHT22;10106;51.332;12.336;2022-10-17T10:07:40;23.60;99.90
19888;DHT22;10106;51.332;12.336;2022-10-17T10:10:23;23.80;99.90
19888;DHT22;10106;51.332;12.336;2022-10-17T10:15:40;23.90;99.90
19888;DHT22;10106;51.332;12.336;2022-10-17T10:21:18;24.10;99.90
19888;DHT22;10106;51.332;12.336;2022-10-17T10:31:52;24.50;99.90
19888;DHT22;10106;51.332;12.336;2022-10-17T10:34:23;24.60;99.90
19888;DHT22;10106;51.332;12.336;2022-10-17T10:37:04;24.60;99.90
19888;DHT22;10106;51.332;12.336;2022-10-17T10:39:40;24.30;99.90
19888;DHT22;10106;51.332;12.336;2022-10-17T10:42:17;24.40;99.90
19888;DHT22;10106;51.332;12.336;2022-10-17T10:44:44;24.40;99.90
19888;DHT22;10106;51.332;12.336;2022-10-17T10:49:44;24.50;99.90
19888;DHT22;10106;51.332;12.336;2022-10-17T10:52:26;24.60;99.90
19888;DHT22;10106;51.332;12.336;2022-10-17T10:55:25;24.60;99.90
19888;DHT22;10106;51.332;12.336;2022-10-17T10:57:51;24.60;99.90
19888;DHT22;10106;51.332;12.336;2022-10-17T11:00:21;24.60;99.90
19888;DHT22;10106;51.332;12.336;2022-10-17T11:03:20;24.60;99.90
19888;DHT22;10106;51.332;12.336;2022-10-17T11:06:03;24.70;99.90
19888;DHT22;10106;51.332;12.336;2022-10-17T11:08:39;24.80;99.90
19888;DHT22;10106;51.332;12.336;2022-10-17T11:11:19;25.00;99.90
19888;DHT22;10106;51.332;12.336;2022-10-17T11:14:10;25.20;99.90
19888;DHT22;10106;51.332;12.336;2022-10-17T11:16:43;25.20;99.90
19888;DHT22;10106;51.332;12.336;2022-10-17T11:19:27;25.10;99.90
19888;DHT22;10106;51.332;12.336;2022-10-17T11:22:10;25.10;99.90
19888;DHT22;10106;51.332;12.336;2022-10-17T11:24:45;25.00;99.90
19888;DHT22;10106;51.332;12.336;2022-10-17T11:27:13;24.90;99.90
19888;DHT22;10106;51.332;12.336;2022-10-17T11:29:40;25.00;99.90
19888;DHT22;10106;51.332;12.336;2022-10-17T11:32:27;25.20;99.90
19888;DHT22;10106;51.332;12.336;2022-10-17T11:37:40;25.50;99.90
19888;DHT22;10106;51.332;12.336;2022-10-17T11:40:30;25.50;99.90
19888;DHT22;10106;51.332;12.336;2022-10-17T11:45:29;25.30;99.90
19888;DHT22;10106;51.332;12.336;2022-10-17T11:48:05;25.40;99.90
19888;DHT22;10106;51.332;12.336;2022-10-17T11:50:37;25.50;99.90
19888;DHT22;10106;51.332;12.336;2022-10-17T11:56:01;25.50;99.90
19888;DHT22;10106;51.332;12.336;2022-10-17T11:58:40;25.70;99.90
19888;DHT22;10106;51.332;12.336;2022-10-17T12:01:33;25.70;99.90
19888;DHT22;10106;51.332;12.336;2022-10-17T12:07:04;25.70;99.90
19888;DHT22;10106;51.332;12.336;2022-10-17T12:12:08;25.60;99.90
19888;DHT22;10106;51.332;12.336;2022-10-17T12:14:42;25.50;99.90
19888;DHT22;10106;51.332;12.336;2022-10-17T12:17:29;25.50;99.90
19888;DHT22;10106;51.332;12.336;2022-10-17T12:25:35;25.30;99.90
19888;DHT22;10106;51.332;12.336;2022-10-17T12:31:10;25.30;99.90
19888;DHT22;10106;51.332;12.336;2022-10-17T12:33:57;25.30;99.90
19888;DHT22;10106;51.332;12.336;2022-10-17T12:49:46;25.80;99.90
19888;DHT22;10106;51.332;12.336;2022-10-17T12:55:10;25.60;99.90
19888;DHT22;10106;51.332;12.336;2022-10-17T12:57:41;25.70;99.90
19888;DHT22;10106;51.332;12.336;2022-10-17T13:03:03;25.50;99.90
19888;DHT22;10106;51.332;12.336;2022-10-17T13:05:34;25.40;99.90
19888;DHT22;10106;51.332;12.336;2022-10-17T13:08:04;25.50;99.90
19888;DHT22;10106;51.332;12.336;2022-10-17T13:10:33;25.60;99.90
19888;DHT22;10106;51.332;12.336;2022-10-17T13:13:18;25.70;99.90
19888;DHT22;10106;51.332;12.336;2022-10-17T13:15:49;25.60;99.90
19888;DHT22;10106;51.332;12.336;2022-10-17T13:18:23;25.60;99.90
19888;DHT22;10106;51.332;12.336;2022-10-17T13:21:03;25.50;99.90
19888;DHT22;10106;51.332;12.336;2022-10-17T13:23:35;25.50;99.90
19888;DHT22;10106;51.332;12.336;2022-10-17T13:28:27;25.40;99.90
19888;DHT22;10106;51.332;12.336;2022-10-17T13:30:53;25.30;99.90
19888;DHT22;10106;51.332;12.336;2022-10-17T13:33:37;25.20;99.90
19888;DHT22;10106;51.332;12.336;2022-10-17T13:36:06;25.10;99.90
19888;DHT22;10106;51.332;12.336;2022-10-17T13:38:33;25.10;99.90
19888;DHT22;10106;51.332;12.336;2022-10-17T13:41:00;25.10;99.90
19888;DHT22;10106;51.332;12.336;2022-10-17T13:43:27;25.10;99.90
19888;DHT22;10106;51.332;12.336;2022-10-17T13:45:57;25.10;99.90
19888;DHT22;10106;51.332;12.336;2022-10-17T13:48:27;25.00;99.90
19888;DHT22;10106;51.332;12.336;2022-10-17T13:51:00;25.00;99.90
19888;DHT22;10106;51.332;12.336;2022-10-17T13:53:31;25.00;99.90
19888;DHT22;10106;51.332;12.336;2022-10-17T13:58:53;24.90;99.90
19888;DHT22;10106;51.332;12.336;2022-10-17T14:01:21;24.90;99.90
19888;DHT22;10106;51.332;12.336;2022-10-17T14:03:47;24.80;99.90
19888;DHT22;10106;51.332;12.336;2022-10-17T14:06:19;24.80;99.90
19888;DHT22;10106;51.332;12.336;2022-10-17T14:08:50;24.70;99.90
19888;DHT22;10106;51.332;12.336;2022-10-17T14:11:33;24.70;99.90
19888;DHT22;10106;51.332;12.336;2022-10-17T14:14:02;24.70;99.90
19888;DHT22;10106;51.332;12.336;2022-10-17T14:16:37;24.70;99.90
19888;DHT22;10106;51.332;12.336;2022-10-17T14:19:04;24.70;99.90
19888;DHT22;10106;51.332;12.336;2022-10-17T14:21:30;24.70;99.80
19888;DHT22;10106;51.332;12.336;2022-10-17T14:26:53;24.70;99.40
19888;DHT22;10106;51.332;12.336;2022-10-17T14:29:30;24.70;99.60
19888;DHT22;10106;51.332;12.336;2022-10-17T14:32:06;24.70;99.90
19888;DHT22;10106;51.332;12.336;2022-10-17T14:34:38;24.60;99.90
19888;DHT22;10106;51.332;12.336;2022-10-17T14:37:23;24.50;99.90
19888;DHT22;10106;51.332;12.336;2022-10-17T14:39:51;24.50;99.90
19888;DHT22;10106;51.332;12.336;2022-10-17T14:42:20;24.40;99.90
19888;DHT22;10106;51.332;12.336;2022-10-17T14:44:51;24.40;99.90
19888;DHT22;10106;51.332;12.336;2022-10-17T14:47:24;24.40;99.90
19888;DHT22;10106;51.332;12.336;2022-10-17T14:50:05;24.30;99.90
19888;DHT22;10106;51.332;12.336;2022-10-17T14:52:31;24.20;99.90
19888;DHT22;10106;51.332;12.336;2022-10-17T14:54:58;24.20;99.90
19888;DHT22;10106;51.332;12.336;2022-10-17T14:57:42;24.20;99.90
19888;DHT22;10106;51.332;12.336;2022-10-17T15:00:16;24.20;99.90
19888;DHT22;10106;51.332;12.336;2022-10-17T15:02:43;24.10;99.90
19888;DHT22;10106;51.332;12.336;2022-10-17T15:05:09;24.10;99.90
19888;DHT22;10106;51.332;12.336;2022-10-17T15:07:35;24.00;99.90
19888;DHT22;10106;51.332;12.336;2022-10-17T15:10:01;23.90;99.90
19888;DHT22;10106;51.332;12.336;2022-10-17T15:12:26;23.80;99.90
19888;DHT22;10106;51.332;12.336;2022-10-17T15:14:52;23.60;99.90
19888;DHT22;10106;51.332;12.336;2022-10-17T15:17:24;23.50;99.90
19888;DHT22;10106;51.332;12.336;2022-10-17T15:19:50;23.40;99.90
19888;DHT22;10106;51.332;12.336;2022-10-17T15:22:16;23.30;99.90
19888;DHT22;10106;51.332;12.336;2022-10-17T15:24:43;23.20;99.90
19888;DHT22;10106;51.332;12.336;2022-10-17T15:27:20;23.10;99.90
19888;DHT22;10106;51.332;12.336;2022-10-17T15:29:46;23.10;99.90
19888;DHT22;10106;51.332;12.336;2022-10-17T15:32:12;23.00;99.90
19888;DHT22;10106;51.332;12.336;2022-10-17T15:34:38;22.90;99.90
19888;DHT22;10106;51.332;12.336;2022-10-17T15:37:05;22.80;99.90
19888;DHT22;10106;51.332;12.336;2022-10-17T15:39:32;22.70;99.90
19888;DHT22;10106;51.332;12.336;2022-10-17T15:41:57;22.60;99.90
19888;DHT22;10106;51.332;12.336;2022-10-17T15:44:24;22.50;99.90
19888;DHT22;10106;51.332;12.336;2022-10-17T15:46:49;22.40;99.90
19888;DHT22;10106;51.332;12.336;2022-10-17T15:49:17;22.30;99.90
19888;DHT22;10106;51.332;12.336;2022-10-17T15:51:44;22.20;99.90
19888;DHT22;10106;51.332;12.336;2022-10-17T15:54:10;22.10;99.90
19888;DHT22;10106;51.332;12.336;2022-10-17T15:56:39;22.00;99.90
19888;DHT22;10106;51.332;12.336;2022-10-17T15:59:19;21.90;99.90
19888;DHT22;10106;51.332;12.336;2022-10-17T16:01:45;21.80;99.90
19888;DHT22;10106;51.332;12.336;2022-10-17T16:04:13;21.70;99.90
19888;DHT22;10106;51.332;12.336;2022-10-17T16:06:41;21.60;99.90
19888;DHT22;10106;51.332;12.336;2022-10-17T16:09:07;21.50;99.90
19888;DHT22;10106;51.332;12.336;2022-10-17T16:11:38;21.40;99.90
19888;DHT22;10106;51.332;12.336;2022-10-17T16:14:06;21.30;99.90
19888;DHT22;10106;51.332;12.336;2022-10-17T16:16:32;21.20;99.90
19888;DHT22;10106;51.332;12.336;2022-10-17T16:18:58;21.10;99.90
19888;DHT22;10106;51.332;12.336;2022-10-17T16:21:26;21.10;99.90
19888;DHT22;10106;51.332;12.336;2022-10-17T16:23:53;21.10;99.90
19888;DHT22;10106;51.332;12.336;2022-10-17T16:26:19;21.00;99.90
19888;DHT22;10106;51.332;12.336;2022-10-17T16:28:45;20.90;99.90
19888;DHT22;10106;51.332;12.336;2022-10-17T16:31:35;20.90;99.90
19888;DHT22;10106;51.332;12.336;2022-10-17T16:34:02;20.70;99.90
19888;DHT22;10106;51.332;12.336;2022-10-17T16:36:28;20.60;99.90
19888;DHT22;10106;51.332;12.336;2022-10-17T16:38:54;20.50;99.90
19888;DHT22;10106;51.332;12.336;2022-10-17T16:41:25;20.40;99.90
19888;DHT22;10106;51.332;12.336;2022-10-17T16:43:56;20.40;99.90
19888;DHT22;10106;51.332;12.336;2022-10-17T16:46:23;20.30;99.90
19888;DHT22;10106;51.332;12.336;2022-10-17T16:48:49;20.20;99.90
19888;DHT22;10106;51.332;12.336;2022-10-17T16:51:17;20.10;99.90
19888;DHT22;10106;51.332;12.336;2022-10-17T16:53:44;20.00;99.90
19888;DHT22;10106;51.332;12.336;2022-10-17T16:56:12;20.00;99.90
19888;DHT22;10106;51.332;12.336;2022-10-17T16:58:39;19.80;99.90
19888;DHT22;10106;51.332;12.336;2022-10-17T17:01:09;19.70;99.90
19888;DHT22;10106;51.332;12.336;2022-10-17T17:03:41;19.70;99.90
19888;DHT22;10106;51.332;12.336;2022-10-17T17:06:10;19.60;99.90
19888;DHT22;10106;51.332;12.336;2022-10-17T17:08:37;19.60;99.90
19888;DHT22;10106;51.332;12.336;2022-10-17T17:11:06;19.60;99.90
19888;DHT22;10106;51.332;12.336;2022-10-17T17:13:32;19.60;99.90
19888;DHT22;10106;51.332;12.336;2022-10-17T17:16:09;19.70;99.90
19888;DHT22;10106;51.332;12.336;2022-10-17T17:18:35;19.80;99.90
19888;DHT22;10106;51.332;12.336;2022-10-17T17:21:04;19.80;99.90
19888;DHT22;10106;51.332;12.336;2022-10-17T17:23:33;19.80;99.90
19888;DHT22;10106;51.332;12.336;2022-10-17T17:26:04;19.60;99.90
19888;DHT22;10106;51.332;12.336;2022-10-17T17:28:31;19.60;99.90